createdAt,value
2018-08-10T00:00:30.778Z,20.82
2018-08-10T00:01:30.805Z,20.82
2018-08-10T00:02:30.831Z,20.85
2018-08-10T00:03:30.856Z,20.78
2018-08-10T00:04:30.881Z,20.75
2018-08-10T00:05:30.897Z,20.71
2018-08-10T00:06:30.921Z,20.74
2018-08-10T00:07:30.948Z,20.78
2018-08-10T00:08:30.976Z,20.73
2018-08-10T00:09:30.998Z,20.64
2018-08-10T00:10:31.024Z,20.64
2018-08-10T00:11:31.051Z,20.63
2018-08-10T00:12:31.064Z,20.64
2018-08-10T00:13:31.089Z,20.71
2018-08-10T00:14:31.115Z,20.56
2018-08-10T00:15:31.141Z,20.70
2018-08-10T00:16:31.167Z,20.59
2018-08-10T00:17:31.193Z,20.53
2018-08-10T00:18:31.206Z,20.52
2018-08-10T00:19:31.233Z,20.55
2018-08-10T00:20:31.258Z,20.55
2018-08-10T00:21:31.285Z,20.55
2018-08-10T00:22:31.315Z,20.55
2018-08-10T00:23:31.337Z,20.48
2018-08-10T00:24:31.351Z,20.46
2018-08-10T00:25:31.376Z,20.46
2018-08-10T00:26:31.401Z,20.49
2018-08-10T00:27:31.427Z,20.46
2018-08-10T00:28:31.453Z,20.46
2018-08-10T00:29:31.479Z,20.40
2018-08-10T00:30:31.493Z,20.33
2018-08-10T00:31:31.519Z,20.49
2018-08-10T00:32:31.544Z,20.34
2018-08-10T00:33:31.571Z,20.33
2018-08-10T00:34:31.597Z,20.40
2018-08-10T00:35:31.622Z,20.34
2018-08-10T00:36:31.637Z,20.34
2018-08-10T00:37:31.674Z,20.29
2018-08-10T00:38:31.687Z,20.33
2018-08-10T00:39:31.713Z,20.21
2018-08-10T00:40:31.739Z,20.33
2018-08-10T00:41:31.765Z,20.19
2018-08-10T00:42:31.779Z,20.19
2018-08-10T00:43:31.805Z,20.22
2018-08-10T00:44:31.830Z,20.27
2018-08-10T00:45:31.857Z,20.30
2018-08-10T00:46:31.883Z,20.26
2018-08-10T00:47:31.908Z,20.12
2018-08-10T00:48:31.922Z,20.15
2018-08-10T00:49:31.977Z,20.14
2018-08-10T00:50:31.973Z,20.17
2018-08-10T00:51:32.000Z,20.15
2018-08-10T00:52:32.026Z,20.15
2018-08-10T00:53:32.040Z,20.19
2018-08-10T00:54:32.065Z,20.19
2018-08-10T00:55:32.090Z,20.11
2018-08-10T00:56:32.116Z,20.17
2018-08-10T00:57:32.143Z,20.14
2018-08-10T00:58:32.168Z,20.11
2018-08-10T00:59:32.194Z,20.08
2018-08-10T01:00:32.206Z,20.07
2018-08-10T01:01:32.233Z,20.07
2018-08-10T01:02:32.260Z,20.00
2018-08-10T01:03:32.285Z,19.99
2018-08-10T01:04:32.311Z,20.02
2018-08-10T01:05:32.325Z,20.00
2018-08-10T01:06:32.351Z,20.03
2018-08-10T01:07:32.379Z,20.03
2018-08-10T01:08:32.403Z,19.99
2018-08-10T01:09:32.429Z,20.03
2018-08-10T01:10:32.441Z,20.00
2018-08-10T01:11:32.470Z,19.97
2018-08-10T01:12:32.493Z,19.96
2018-08-10T01:13:32.620Z,19.94
2018-08-10T01:14:32.545Z,19.93
2018-08-10T01:15:32.560Z,19.90
2018-08-10T01:16:32.585Z,19.87
2018-08-10T01:17:32.612Z,19.93
2018-08-10T01:18:32.638Z,19.87
2018-08-10T01:19:32.665Z,19.89
2018-08-10T01:20:32.689Z,19.84
2018-08-10T01:21:32.701Z,19.87
2018-08-10T01:22:32.728Z,19.78
2018-08-10T01:23:32.753Z,19.79
2018-08-10T01:24:32.779Z,19.77
2018-08-10T01:25:32.808Z,19.77
2018-08-10T01:26:32.819Z,19.79
2018-08-10T01:27:32.845Z,19.77
2018-08-10T01:28:32.886Z,19.74
2018-08-10T01:29:32.899Z,19.75
2018-08-10T01:30:32.924Z,19.78
2018-08-10T01:31:32.937Z,19.70
2018-08-10T01:32:32.962Z,19.63
2018-08-10T01:33:32.987Z,19.70
2018-08-10T01:34:33.026Z,19.74
2018-08-10T01:35:33.039Z,19.67
2018-08-10T01:36:33.056Z,19.74
2018-08-10T01:37:33.079Z,19.70
2018-08-10T01:38:33.105Z,19.63
2018-08-10T01:39:33.174Z,19.66
2018-08-10T01:40:33.157Z,19.70
2018-08-10T01:41:33.201Z,19.62
2018-08-10T01:42:33.196Z,19.59
2018-08-10T01:43:33.221Z,19.59
2018-08-10T01:44:33.248Z,19.59
2018-08-10T01:45:33.274Z,19.63
2018-08-10T01:46:33.287Z,19.59
2018-08-10T01:47:33.314Z,19.53
2018-08-10T01:48:33.339Z,19.60
2018-08-10T01:49:33.364Z,19.55
2018-08-10T01:50:33.391Z,19.55
2018-08-10T01:51:33.405Z,19.55
2018-08-10T01:52:33.429Z,19.53
2018-08-10T01:53:33.457Z,19.42
2018-08-10T01:54:33.481Z,19.39
2018-08-10T01:55:33.507Z,19.55
2018-08-10T01:56:33.521Z,19.49
2018-08-10T01:57:33.547Z,19.48
2018-08-10T01:58:33.573Z,19.42
2018-08-10T01:59:33.599Z,19.48
2018-08-10T02:00:33.628Z,19.42
2018-08-10T02:01:33.638Z,19.44
2018-08-10T02:02:33.663Z,19.45
2018-08-10T02:03:33.702Z,19.53
2018-08-10T02:04:33.717Z,19.35
2018-08-10T02:05:33.741Z,19.39
2018-08-10T02:06:33.755Z,19.37
2018-08-10T02:07:33.782Z,19.39
2018-08-10T02:08:33.807Z,19.35
2018-08-10T02:09:33.833Z,19.39
2018-08-10T02:10:33.847Z,19.35
2018-08-10T02:11:33.873Z,19.39
2018-08-10T02:12:33.897Z,19.44
2018-08-10T02:13:33.936Z,19.44
2018-08-10T02:14:33.950Z,19.37
2018-08-10T02:15:33.964Z,19.35
2018-08-10T02:16:33.990Z,19.30
2018-08-10T02:17:34.015Z,19.30
2018-08-10T02:18:34.042Z,19.29
2018-08-10T02:19:34.068Z,19.30
2018-08-10T02:20:34.081Z,19.24
2018-08-10T02:21:34.106Z,19.24
2018-08-10T02:22:34.133Z,19.24
2018-08-10T02:23:34.171Z,19.30
2018-08-10T02:24:34.192Z,19.26
2018-08-10T02:25:34.198Z,19.27
2018-08-10T02:26:34.224Z,19.20
2018-08-10T02:27:34.249Z,19.24
2018-08-10T02:28:34.276Z,19.19
2018-08-10T02:29:34.288Z,19.19
2018-08-10T02:30:34.318Z,19.12
2018-08-10T02:31:34.340Z,19.17
2018-08-10T02:32:34.366Z,19.12
2018-08-10T02:33:34.380Z,19.09
2018-08-10T02:34:34.407Z,19.11
2018-08-10T02:35:34.434Z,19.11
2018-08-10T02:36:34.462Z,19.12
2018-08-10T02:37:34.471Z,19.11
2018-08-10T02:38:34.496Z,19.08
2018-08-10T02:39:34.523Z,19.07
2018-08-10T02:40:34.550Z,19.11
2018-08-10T02:41:34.574Z,19.16
2018-08-10T02:42:34.590Z,19.12
2018-08-10T02:43:34.624Z,19.08
2018-08-10T02:44:34.645Z,19.11
2018-08-10T02:45:34.667Z,19.11
2018-08-10T02:46:34.680Z,19.09
2018-08-10T02:47:34.706Z,19.05
2018-08-10T02:48:34.732Z,19.05
2018-08-10T02:49:34.757Z,19.09
2018-08-10T02:50:34.782Z,19.09
2018-08-10T02:51:34.796Z,19.08
2018-08-10T02:52:34.822Z,19.09
2018-08-10T02:53:34.848Z,19.09
2018-08-10T02:54:34.875Z,19.07
2018-08-10T02:55:34.900Z,19.19
2018-08-10T02:56:34.913Z,19.16
2018-08-10T02:57:34.939Z,19.15
2018-08-10T02:58:34.968Z,19.12
2018-08-10T02:59:34.996Z,19.22
2018-08-10T03:00:35.008Z,19.12
2018-08-10T03:01:35.031Z,19.12
2018-08-10T03:02:35.056Z,19.16
2018-08-10T03:03:35.085Z,19.17
2018-08-10T03:04:35.095Z,19.15
2018-08-10T03:05:35.120Z,19.23
2018-08-10T03:06:35.149Z,19.16
2018-08-10T03:07:35.176Z,19.20
2018-08-10T03:08:35.200Z,19.17
2018-08-10T03:09:35.213Z,19.24
2018-08-10T03:10:35.239Z,19.23
2018-08-10T03:11:35.264Z,19.24
2018-08-10T03:12:35.290Z,19.27
2018-08-10T03:13:35.316Z,19.34
2018-08-10T03:14:35.330Z,19.24
2018-08-10T03:15:35.355Z,19.24
2018-08-10T03:16:35.382Z,19.26
2018-08-10T03:17:35.408Z,19.27
2018-08-10T03:18:35.421Z,19.26
2018-08-10T03:19:35.448Z,19.29
2018-08-10T03:20:35.474Z,19.29
2018-08-10T03:21:35.499Z,19.37
2018-08-10T03:22:35.512Z,19.37
2018-08-10T03:23:35.538Z,19.38
2018-08-10T03:24:35.576Z,19.34
2018-08-10T03:25:35.588Z,19.34
2018-08-10T03:26:35.615Z,19.39
2018-08-10T03:27:35.628Z,19.38
2018-08-10T03:28:35.655Z,19.39
2018-08-10T03:29:35.681Z,19.39
2018-08-10T03:30:35.760Z,19.37
2018-08-10T03:31:35.733Z,19.38
2018-08-10T03:32:35.748Z,19.45
2018-08-10T03:33:35.772Z,19.45
2018-08-10T03:34:35.796Z,19.37
2018-08-10T03:35:35.822Z,19.34
2018-08-10T03:36:35.848Z,19.35
2018-08-10T03:37:35.867Z,19.35
2018-08-10T03:38:35.931Z,19.35
2018-08-10T03:39:35.914Z,19.37
2018-08-10T03:40:35.940Z,19.35
2018-08-10T03:41:35.954Z,19.41
2018-08-10T03:42:35.982Z,19.38
2018-08-10T03:43:36.005Z,19.35
2018-08-10T03:44:36.032Z,19.42
2018-08-10T03:45:36.056Z,19.44
2018-08-10T03:46:36.071Z,19.41
2018-08-10T03:47:36.097Z,19.41
2018-08-10T03:48:36.123Z,19.47
2018-08-10T03:49:36.151Z,19.39
2018-08-10T03:50:36.175Z,19.45
2018-08-10T03:51:36.187Z,19.45
2018-08-10T03:52:36.213Z,19.44
2018-08-10T03:53:36.251Z,19.42
2018-08-10T03:54:36.264Z,19.49
2018-08-10T03:55:36.291Z,19.41
2018-08-10T03:56:36.305Z,19.49
2018-08-10T03:57:36.330Z,19.41
2018-08-10T03:58:36.356Z,19.52
2018-08-10T03:59:36.383Z,19.56
2018-08-10T04:00:36.409Z,19.44
2018-08-10T04:01:36.422Z,19.45
2018-08-10T04:02:36.447Z,19.55
2018-08-10T04:03:36.474Z,19.55
2018-08-10T04:04:36.502Z,19.53
2018-08-10T04:05:36.526Z,19.55
2018-08-10T04:06:36.538Z,19.53
2018-08-10T04:07:36.566Z,19.56
2018-08-10T04:08:36.590Z,19.60
2018-08-10T04:09:36.616Z,19.63
2018-08-10T04:10:36.644Z,19.60
2018-08-10T04:11:36.656Z,19.64
2018-08-10T04:12:36.683Z,19.60
2018-08-10T04:13:36.706Z,19.60
2018-08-10T04:14:36.732Z,19.63
2018-08-10T04:15:36.759Z,19.63
2018-08-10T04:16:36.786Z,19.63
2018-08-10T04:17:36.798Z,19.63
2018-08-10T04:18:36.825Z,19.62
2018-08-10T04:19:36.852Z,19.67
2018-08-10T04:20:36.878Z,19.63
2018-08-10T04:21:36.902Z,19.59
2018-08-10T04:22:36.930Z,19.56
2018-08-10T04:23:36.941Z,19.72
2018-08-10T04:24:36.967Z,19.72
2018-08-10T04:25:36.993Z,19.75
2018-08-10T04:26:37.024Z,19.75
2018-08-10T04:27:37.034Z,19.63
2018-08-10T04:28:37.059Z,19.64
2018-08-10T04:29:37.125Z,19.75
2018-08-10T04:30:37.113Z,19.78
2018-08-10T04:31:37.137Z,19.63
2018-08-10T04:32:37.163Z,19.77
2018-08-10T04:33:37.175Z,19.70
2018-08-10T04:34:37.201Z,19.71
2018-08-10T04:35:37.228Z,19.63
2018-08-10T04:36:37.253Z,19.78
2018-08-10T04:37:37.279Z,19.72
2018-08-10T04:38:37.318Z,19.75
2018-08-10T04:39:37.320Z,19.77
2018-08-10T04:40:37.345Z,19.85
2018-08-10T04:41:37.372Z,19.79
2018-08-10T04:42:37.397Z,19.77
2018-08-10T04:43:37.425Z,19.87
2018-08-10T04:44:37.436Z,19.85
2018-08-10T04:45:37.475Z,19.78
2018-08-10T04:46:37.488Z,19.89
2018-08-10T04:47:37.514Z,19.78
2018-08-10T04:48:37.540Z,19.87
2018-08-10T04:49:37.554Z,19.85
2018-08-10T04:50:37.579Z,19.82
2018-08-10T04:51:37.607Z,19.87
2018-08-10T04:52:37.631Z,19.79
2018-08-10T04:53:37.657Z,19.78
2018-08-10T04:54:37.671Z,19.90
2018-08-10T04:55:37.695Z,19.81
2018-08-10T04:56:37.721Z,19.89
2018-08-10T04:57:37.747Z,19.82
2018-08-10T04:58:37.773Z,19.89
2018-08-10T04:59:37.805Z,19.89
2018-08-10T05:00:37.813Z,19.92
2018-08-10T05:01:37.840Z,19.90
2018-08-10T05:02:37.865Z,19.87
2018-08-10T05:03:37.924Z,19.90
2018-08-10T05:04:37.919Z,19.94
2018-08-10T05:05:37.931Z,19.93
2018-08-10T05:06:37.956Z,19.90
2018-08-10T05:07:37.994Z,19.85
2018-08-10T05:08:38.008Z,19.94
2018-08-10T05:09:38.034Z,19.94
2018-08-10T05:10:38.060Z,19.94
2018-08-10T05:11:38.073Z,19.97
2018-08-10T05:12:38.100Z,20.02
2018-08-10T05:13:38.125Z,20.00
2018-08-10T05:14:38.152Z,20.10
2018-08-10T05:15:38.209Z,20.10
2018-08-10T05:16:38.203Z,20.15
2018-08-10T05:17:38.216Z,20.11
2018-08-10T05:18:38.241Z,20.12
2018-08-10T05:19:38.267Z,20.15
2018-08-10T05:20:38.294Z,20.26
2018-08-10T05:21:38.322Z,20.24
2018-08-10T05:22:38.397Z,20.26
2018-08-10T05:23:38.359Z,20.18
2018-08-10T05:24:38.391Z,20.27
2018-08-10T05:25:38.411Z,20.32
2018-08-10T05:26:38.437Z,20.29
2018-08-10T05:27:38.463Z,20.34
2018-08-10T05:28:38.489Z,20.30
2018-08-10T05:29:38.502Z,20.34
2018-08-10T05:30:38.532Z,20.36
2018-08-10T05:31:38.554Z,20.37
2018-08-10T05:32:38.580Z,20.42
2018-08-10T05:33:38.605Z,20.42
2018-08-10T05:34:38.654Z,20.36
2018-08-10T05:35:38.657Z,20.40
2018-08-10T05:36:38.671Z,20.42
2018-08-10T05:37:38.698Z,20.49
2018-08-10T05:38:38.724Z,20.46
2018-08-10T05:39:38.748Z,20.46
2018-08-10T05:40:38.779Z,20.53
2018-08-10T05:41:38.800Z,20.60
2018-08-10T05:42:38.826Z,20.64
2018-08-10T05:43:38.839Z,20.64
2018-08-10T05:44:38.866Z,20.58
2018-08-10T05:45:38.891Z,20.68
2018-08-10T05:46:38.917Z,20.67
2018-08-10T05:47:38.945Z,20.71
2018-08-10T05:48:38.969Z,20.64
2018-08-10T05:49:38.987Z,20.68
2018-08-10T05:50:39.010Z,20.67
2018-08-10T05:51:39.035Z,20.64
2018-08-10T05:52:39.136Z,20.66
2018-08-10T05:53:39.088Z,20.67
2018-08-10T05:54:39.113Z,20.68
2018-08-10T05:55:39.139Z,20.58
2018-08-10T05:56:39.155Z,20.64
2018-08-10T05:57:39.177Z,20.67
2018-08-10T05:58:39.217Z,20.68
2018-08-10T05:59:39.229Z,20.68
2018-08-10T06:00:39.260Z,20.68
2018-08-10T06:01:39.281Z,20.50
2018-08-10T06:02:39.307Z,20.64
2018-08-10T06:03:39.360Z,20.66
2018-08-10T06:04:39.348Z,20.60
2018-08-10T06:05:39.375Z,20.52
2018-08-10T06:06:39.400Z,20.56
2018-08-10T06:07:39.424Z,20.59
2018-08-10T06:08:39.451Z,20.55
2018-08-10T06:09:39.477Z,20.50
2018-08-10T06:10:39.491Z,20.52
2018-08-10T06:11:39.515Z,20.53
2018-08-10T06:12:39.541Z,20.42
2018-08-10T06:13:39.568Z,20.39
2018-08-10T06:14:39.594Z,20.40
2018-08-10T06:15:39.619Z,20.42
2018-08-10T06:16:39.644Z,20.33
2018-08-10T06:17:39.660Z,20.32
2018-08-10T06:18:39.692Z,20.19
2018-08-10T06:19:39.780Z,20.19
2018-08-10T06:20:39.736Z,20.18
2018-08-10T06:21:39.842Z,20.24
2018-08-10T06:22:39.779Z,20.17
2018-08-10T06:23:39.803Z,20.18
2018-08-10T06:24:39.827Z,20.12
2018-08-10T06:25:39.853Z,20.15
2018-08-10T06:26:39.881Z,20.17
2018-08-10T06:27:39.913Z,20.17
2018-08-10T06:28:39.932Z,20.12
2018-08-10T06:29:39.945Z,20.12
2018-08-10T06:30:39.972Z,20.14
2018-08-10T06:31:39.997Z,20.14
2018-08-10T06:32:40.023Z,20.17
2018-08-10T06:33:40.102Z,20.14
2018-08-10T06:34:40.063Z,20.15
2018-08-10T06:35:40.088Z,20.15
2018-08-10T06:36:40.125Z,20.15
2018-08-10T06:37:40.139Z,20.15
2018-08-10T06:38:40.164Z,20.17
2018-08-10T06:39:40.234Z,20.11
2018-08-10T06:40:40.205Z,20.17
2018-08-10T06:41:40.230Z,20.12
2018-08-10T06:42:40.256Z,20.17
2018-08-10T06:43:40.283Z,20.18
2018-08-10T06:44:40.320Z,20.14
2018-08-10T06:45:40.323Z,20.10
2018-08-10T06:46:40.348Z,20.12
2018-08-10T06:47:40.372Z,20.10
2018-08-10T06:48:40.400Z,20.10
2018-08-10T06:49:40.424Z,20.12
2018-08-10T06:50:40.452Z,20.03
2018-08-10T06:51:40.478Z,20.04
2018-08-10T06:52:40.491Z,20.07
2018-08-10T06:53:40.516Z,20.04
2018-08-10T06:54:40.542Z,20.04
2018-08-10T06:55:40.612Z,20.03
2018-08-10T06:56:40.596Z,20.03
2018-08-10T06:57:40.608Z,20.00
2018-08-10T06:58:40.633Z,20.03
2018-08-10T06:59:40.659Z,20.00
2018-08-10T07:00:40.758Z,20.00
2018-08-10T07:01:40.842Z,20.04
2018-08-10T07:02:40.725Z,19.99
2018-08-10T07:03:40.751Z,19.97
2018-08-10T07:04:40.776Z,19.97
2018-08-10T07:05:40.805Z,19.97
2018-08-10T07:06:40.829Z,20.04
2018-08-10T07:07:40.981Z,19.97
2018-08-10T07:08:40.868Z,19.94
2018-08-10T07:09:40.896Z,20.02
2018-08-10T07:10:40.922Z,20.04
2018-08-10T07:11:40.961Z,20.03
2018-08-10T07:12:40.974Z,20.03
2018-08-10T07:13:41.057Z,20.07
2018-08-10T07:14:41.011Z,20.11
2018-08-10T07:15:41.037Z,20.14
2018-08-10T07:16:41.064Z,20.11
2018-08-10T07:17:41.092Z,20.18
2018-08-10T07:18:41.115Z,20.21
2018-08-10T07:19:41.128Z,20.24
2018-08-10T07:20:41.153Z,20.22
2018-08-10T07:21:41.181Z,20.18
2018-08-10T07:22:41.204Z,20.21
2018-08-10T07:23:41.231Z,20.22
2018-08-10T07:24:41.257Z,20.33
2018-08-10T07:25:41.271Z,20.39
2018-08-10T07:26:41.298Z,20.36
2018-08-10T07:27:41.323Z,20.33
2018-08-10T07:28:41.348Z,20.36
2018-08-10T07:29:41.375Z,20.44
2018-08-10T07:30:41.401Z,20.49
2018-08-10T07:31:41.426Z,20.53
2018-08-10T07:32:41.453Z,20.52
2018-08-10T07:33:41.465Z,20.52
2018-08-10T07:34:41.491Z,20.50
2018-08-10T07:35:41.517Z,20.59
2018-08-10T07:36:41.543Z,20.58
2018-08-10T07:37:41.569Z,20.55
2018-08-10T07:38:41.598Z,20.55
2018-08-10T07:39:41.621Z,20.56
2018-08-10T07:40:41.647Z,20.59
2018-08-10T07:41:41.666Z,20.55
2018-08-10T07:42:41.688Z,20.56
2018-08-10T07:43:41.714Z,20.56
2018-08-10T07:44:41.739Z,20.52
2018-08-10T07:45:41.764Z,20.53
2018-08-10T07:46:41.791Z,20.44
2018-08-10T07:47:41.816Z,20.36
2018-08-10T07:48:41.843Z,20.37
2018-08-10T07:49:41.870Z,20.48
2018-08-10T07:50:41.882Z,20.33
2018-08-10T07:51:41.921Z,20.37
2018-08-10T07:52:41.938Z,20.42
2018-08-10T07:53:41.961Z,20.30
2018-08-10T07:54:41.985Z,20.33
2018-08-10T07:55:42.002Z,20.21
2018-08-10T07:56:42.024Z,20.17
2018-08-10T07:57:42.053Z,20.21
2018-08-10T07:58:42.077Z,20.30
2018-08-10T07:59:42.104Z,20.21
2018-08-10T08:00:42.131Z,20.21
2018-08-10T08:01:42.157Z,20.21
2018-08-10T08:02:42.168Z,20.21
2018-08-10T08:03:42.193Z,20.33
2018-08-10T08:04:42.219Z,20.42
2018-08-10T08:05:42.247Z,20.46
2018-08-10T08:06:42.271Z,20.49
2018-08-10T08:07:42.305Z,20.56
2018-08-10T08:08:42.323Z,20.53
2018-08-10T08:09:42.336Z,20.59
2018-08-10T08:10:42.363Z,20.66
2018-08-10T08:11:42.391Z,20.70
2018-08-10T08:12:42.415Z,20.67
2018-08-10T08:13:42.470Z,20.60
2018-08-10T08:14:42.466Z,20.63
2018-08-10T08:15:42.493Z,20.77
2018-08-10T08:16:42.517Z,20.68
2018-08-10T08:17:42.543Z,20.75
2018-08-10T08:18:42.570Z,20.82
2018-08-10T08:19:42.658Z,20.83
2018-08-10T08:20:42.609Z,20.88
2018-08-10T08:21:42.648Z,20.93
2018-08-10T08:22:42.660Z,20.95
2018-08-10T08:23:42.687Z,21.08
2018-08-10T08:24:42.715Z,21.07
2018-08-10T08:25:42.740Z,21.13
2018-08-10T08:26:42.765Z,21.19
2018-08-10T08:27:42.803Z,21.23
2018-08-10T08:28:42.838Z,21.23
2018-08-10T08:29:42.843Z,21.26
2018-08-10T08:30:42.868Z,21.35
2018-08-10T08:31:42.895Z,21.33
2018-08-10T08:32:42.919Z,21.47
2018-08-10T08:33:42.945Z,21.43
2018-08-10T08:34:43.049Z,21.51
2018-08-10T08:35:42.999Z,21.60
2018-08-10T08:36:43.023Z,21.62
2018-08-10T08:37:43.041Z,21.72
2018-08-10T08:38:43.063Z,21.77
2018-08-10T08:39:43.090Z,21.77
2018-08-10T08:40:43.128Z,21.81
2018-08-10T08:41:43.146Z,21.88
2018-08-10T08:42:43.171Z,21.88
2018-08-10T08:43:43.193Z,21.85
2018-08-10T08:44:43.220Z,21.89
2018-08-10T08:45:43.437Z,21.81
2018-08-10T08:46:43.274Z,21.88
2018-08-10T08:47:43.297Z,21.85
2018-08-10T08:48:43.325Z,21.89
2018-08-10T08:49:43.349Z,21.91
2018-08-10T08:50:43.375Z,21.92
2018-08-10T08:51:43.401Z,22.07
2018-08-10T08:52:43.426Z,21.99
2018-08-10T08:53:43.452Z,21.94
2018-08-10T08:54:43.478Z,22.00
2018-08-10T08:55:43.507Z,22.00
2018-08-10T08:56:43.534Z,22.10
2018-08-10T08:57:43.558Z,22.04
2018-08-10T08:58:43.583Z,22.08
2018-08-10T08:59:43.608Z,22.12
2018-08-10T09:00:43.635Z,22.21
2018-08-10T09:01:43.661Z,22.12
2018-08-10T09:02:43.685Z,22.30
2018-08-10T09:03:43.712Z,22.28
2018-08-10T09:04:43.740Z,22.26
2018-08-10T09:05:43.763Z,22.30
2018-08-10T09:06:43.789Z,22.31
2018-08-10T09:07:43.855Z,22.26
2018-08-10T09:08:43.852Z,22.40
2018-08-10T09:09:43.879Z,22.44
2018-08-10T09:10:43.906Z,22.40
2018-08-10T09:11:43.930Z,22.51
2018-08-10T09:12:43.957Z,22.58
2018-08-10T09:13:43.983Z,22.61
2018-08-10T09:14:44.012Z,22.63
2018-08-10T09:15:44.038Z,22.59
2018-08-10T09:16:44.060Z,22.62
2018-08-10T09:17:44.137Z,22.59
2018-08-10T09:18:44.111Z,22.62
2018-08-10T09:19:44.141Z,22.73
2018-08-10T09:20:44.164Z,22.71
2018-08-10T09:21:44.191Z,22.76
2018-08-10T09:22:44.217Z,22.81
2018-08-10T09:23:44.242Z,22.89
2018-08-10T09:24:44.268Z,22.89
2018-08-10T09:25:44.294Z,23.02
2018-08-10T09:26:44.319Z,23.01
2018-08-10T09:27:44.346Z,22.99
2018-08-10T09:28:44.371Z,23.17
2018-08-10T09:29:44.397Z,23.23
2018-08-10T09:30:44.423Z,23.23
2018-08-10T09:31:44.449Z,23.40
2018-08-10T09:32:44.488Z,23.33
2018-08-10T09:33:44.514Z,23.47
2018-08-10T09:34:44.543Z,23.59
2018-08-10T09:35:44.568Z,23.64
2018-08-10T09:36:44.591Z,23.70
2018-08-10T09:37:44.619Z,23.81
2018-08-10T09:38:44.645Z,23.81
2018-08-10T09:39:44.673Z,23.86
2018-08-10T09:40:44.708Z,23.89
2018-08-10T09:41:44.733Z,23.95
2018-08-10T09:42:44.759Z,23.96
2018-08-10T09:43:44.784Z,24.07
2018-08-10T09:44:44.811Z,24.07
2018-08-10T09:45:44.839Z,24.04
2018-08-10T09:46:44.863Z,24.07
2018-08-10T09:47:44.901Z,24.13
2018-08-10T09:48:44.927Z,24.10
2018-08-10T09:49:44.956Z,24.09
2018-08-10T09:50:44.979Z,24.11
2018-08-10T09:51:45.020Z,24.13
2018-08-10T09:52:45.031Z,24.13
2018-08-10T09:53:45.070Z,24.13
2018-08-10T09:54:45.096Z,24.13
2018-08-10T09:55:45.133Z,24.10
2018-08-10T09:56:45.147Z,24.22
2018-08-10T09:57:45.174Z,24.18
2018-08-10T09:58:45.199Z,24.25
2018-08-10T09:59:45.267Z,24.21
2018-08-10T10:00:45.267Z,24.28
2018-08-10T10:01:45.334Z,24.36
2018-08-10T10:02:45.316Z,24.46
2018-08-10T10:03:45.378Z,24.40
2018-08-10T10:04:45.382Z,24.48
2018-08-10T10:05:45.404Z,24.58
2018-08-10T10:06:45.431Z,24.66
2018-08-10T10:07:45.457Z,24.81
2018-08-10T10:08:45.484Z,24.81
2018-08-10T10:09:45.522Z,24.84
2018-08-10T10:10:45.550Z,24.81
2018-08-10T10:11:45.574Z,24.75
2018-08-10T10:12:45.611Z,24.74
2018-08-10T10:13:45.638Z,24.77
2018-08-10T10:14:45.664Z,24.79
2018-08-10T10:15:45.692Z,24.84
2018-08-10T10:16:45.728Z,24.77
2018-08-10T10:17:45.754Z,24.86
2018-08-10T10:18:45.779Z,25.01
2018-08-10T10:19:45.805Z,24.78
2018-08-10T10:20:45.843Z,24.97
2018-08-10T10:21:45.869Z,24.92
2018-08-10T10:22:45.896Z,24.81
2018-08-10T10:23:45.922Z,24.89
2018-08-10T10:24:45.960Z,24.99
2018-08-10T10:25:45.989Z,24.99
2018-08-10T10:26:46.013Z,25.04
2018-08-10T10:27:46.049Z,25.16
2018-08-10T10:28:46.075Z,25.34
2018-08-10T10:29:46.102Z,25.46
2018-08-10T10:30:46.140Z,25.48
2018-08-10T10:31:46.169Z,25.54
2018-08-10T10:32:46.226Z,25.56
2018-08-10T10:33:46.230Z,25.66
2018-08-10T10:34:46.256Z,25.80
2018-08-10T10:35:46.284Z,25.81
2018-08-10T10:36:46.321Z,25.86
2018-08-10T10:37:46.347Z,25.96
2018-08-10T10:38:46.398Z,26.07
2018-08-10T10:39:46.411Z,26.13
2018-08-10T10:40:46.450Z,26.08
2018-08-10T10:41:46.477Z,26.10
2018-08-10T10:42:46.514Z,26.08
2018-08-10T10:43:46.540Z,26.22
2018-08-10T10:44:46.568Z,26.29
2018-08-10T10:45:46.605Z,26.22
2018-08-10T10:46:46.634Z,26.24
2018-08-10T10:47:46.669Z,26.22
2018-08-10T10:48:46.694Z,26.23
2018-08-10T10:49:46.733Z,26.26
2018-08-10T10:50:46.809Z,26.27
2018-08-10T10:51:46.785Z,26.22
2018-08-10T10:52:46.823Z,26.29
2018-08-10T10:53:46.849Z,26.23
2018-08-10T10:54:46.888Z,26.11
2018-08-10T10:55:46.920Z,26.22
2018-08-10T10:56:47.064Z,26.15
2018-08-10T10:57:46.978Z,26.10
2018-08-10T10:58:47.003Z,26.07
2018-08-10T10:59:47.029Z,26.07
2018-08-10T11:00:47.068Z,25.96
2018-08-10T11:01:47.093Z,25.99
2018-08-10T11:02:47.120Z,25.95
2018-08-10T11:03:47.159Z,25.95
2018-08-10T11:04:47.183Z,25.85
2018-08-10T11:05:47.213Z,25.88
2018-08-10T11:06:47.251Z,25.81
2018-08-10T11:07:47.276Z,25.81
2018-08-10T11:08:47.302Z,25.81
2018-08-10T11:09:47.339Z,25.81
2018-08-10T11:10:47.365Z,25.88
2018-08-10T11:11:47.390Z,25.96
2018-08-10T11:12:47.419Z,26.23
2018-08-10T11:13:47.455Z,26.41
2018-08-10T11:14:47.486Z,26.68
2018-08-10T11:15:47.518Z,26.93
2018-08-10T11:16:47.545Z,27.19
2018-08-10T11:17:47.570Z,27.29
2018-08-10T11:18:47.609Z,27.41
2018-08-10T11:19:47.636Z,27.55
2018-08-10T11:20:47.674Z,27.82
2018-08-10T11:21:47.699Z,28.18
2018-08-10T11:22:47.738Z,28.40
2018-08-10T11:23:47.776Z,28.65
2018-08-10T11:24:47.802Z,28.96
2018-08-10T11:25:47.950Z,29.07
2018-08-10T11:26:47.881Z,29.12
2018-08-10T11:27:47.905Z,29.06
2018-08-10T11:28:47.945Z,28.93
2018-08-10T11:29:47.995Z,28.74
2018-08-10T11:30:48.007Z,28.72
2018-08-10T11:31:48.049Z,28.77
2018-08-10T11:32:48.085Z,28.74
2018-08-10T11:33:48.110Z,28.80
2018-08-10T11:34:48.150Z,28.78
2018-08-10T11:35:48.176Z,28.83
2018-08-10T11:36:48.212Z,29.05
2018-08-10T11:37:48.256Z,29.27
2018-08-10T11:38:48.277Z,29.34
2018-08-10T11:39:48.319Z,29.68
2018-08-10T11:40:48.356Z,29.84
2018-08-10T11:41:48.382Z,29.95
2018-08-10T11:42:48.419Z,30.06
2018-08-10T11:43:48.457Z,30.05
2018-08-10T11:44:48.497Z,30.08
2018-08-10T11:45:48.521Z,30.11
2018-08-10T11:46:48.563Z,30.01
2018-08-10T11:47:48.601Z,29.76
2018-08-10T11:48:48.640Z,29.55
2018-08-10T11:49:48.662Z,29.42
2018-08-10T11:50:48.700Z,29.31
2018-08-10T11:51:48.740Z,29.07
2018-08-10T11:52:48.769Z,29.02
2018-08-10T11:53:48.803Z,28.87
2018-08-10T11:54:48.845Z,28.71
2018-08-10T11:55:48.869Z,28.74
2018-08-10T11:56:48.906Z,28.70
2018-08-10T11:57:48.932Z,28.71
2018-08-10T11:58:48.971Z,28.82
2018-08-10T11:59:49.000Z,29.02
2018-08-10T12:00:49.038Z,29.09
2018-08-10T12:01:49.088Z,29.20
2018-08-10T12:02:49.112Z,29.25
2018-08-10T12:03:49.137Z,29.18
2018-08-10T12:04:49.165Z,29.05
2018-08-10T12:05:49.257Z,28.80
2018-08-10T12:06:49.242Z,28.89
2018-08-10T12:07:49.266Z,28.96
2018-08-10T12:08:49.306Z,28.97
2018-08-10T12:09:49.331Z,29.21
2018-08-10T12:10:49.369Z,29.35
2018-08-10T12:11:49.408Z,29.47
2018-08-10T12:12:49.487Z,29.71
2018-08-10T12:13:49.473Z,29.69
2018-08-10T12:14:49.511Z,29.90
2018-08-10T12:15:49.540Z,30.13
2018-08-10T12:16:49.574Z,30.35
2018-08-10T12:17:49.614Z,30.48
2018-08-10T12:18:49.639Z,30.62
2018-08-10T12:19:49.677Z,30.67
2018-08-10T12:20:49.716Z,30.86
2018-08-10T12:21:49.754Z,31.13
2018-08-10T12:22:49.794Z,31.20
2018-08-10T12:23:49.819Z,31.35
2018-08-10T12:24:49.957Z,31.39
2018-08-10T12:25:49.896Z,31.54
2018-08-10T12:26:49.934Z,31.64
2018-08-10T12:27:49.973Z,31.73
2018-08-10T12:28:50.013Z,31.73
2018-08-10T12:29:50.049Z,31.82
2018-08-10T12:30:50.076Z,31.70
2018-08-10T12:31:50.114Z,31.50
2018-08-10T12:32:50.152Z,31.50
2018-08-10T12:33:50.190Z,31.51
2018-08-10T12:34:50.228Z,31.66
2018-08-10T12:35:50.266Z,31.70
2018-08-10T12:36:50.292Z,31.67
2018-08-10T12:37:50.335Z,31.70
2018-08-10T12:38:50.371Z,31.54
2018-08-10T12:39:50.408Z,31.41
2018-08-10T12:40:50.446Z,31.44
2018-08-10T12:41:50.472Z,31.60
2018-08-10T12:42:50.511Z,31.60
2018-08-10T12:43:50.549Z,31.63
2018-08-10T12:44:50.588Z,31.78
2018-08-10T12:45:50.638Z,31.98
2018-08-10T12:46:50.665Z,32.12
2018-08-10T12:47:50.820Z,32.24
2018-08-10T12:48:50.728Z,32.38
2018-08-10T12:49:50.768Z,32.46
2018-08-10T12:50:50.805Z,32.64
2018-08-10T12:51:50.845Z,32.68
2018-08-10T12:52:50.896Z,32.76